createdAt,value
2022-09-20T00:02:13.289Z,1.60
2022-09-20T00:07:16.424Z,2.27
2022-09-20T00:12:19.465Z,2.33
2022-09-20T00:17:23.764Z,2.10
2022-09-20T00:22:27.557Z,1.70
2022-09-20T00:27:31.133Z,1.87
2022-09-20T00:32:35.398Z,1.60
2022-09-20T00:37:39.865Z,1.77
2022-09-20T00:42:42.955Z,1.90
2022-09-20T00:47:51.366Z,1.73
2022-09-20T00:52:59.271Z,2.00
2022-09-20T00:58:02.827Z,1.73
2022-09-20T01:03:10.013Z,1.50
2022-09-20T01:08:13.753Z,1.80
2022-09-20T01:13:16.842Z,1.13
2022-09-20T01:18:24.113Z,1.50
2022-09-20T01:23:37.841Z,1.03
2022-09-20T01:28:47.738Z,1.37
2022-09-20T01:33:54.433Z,1.10
2022-09-20T01:39:14.604Z,1.03
2022-09-20T01:44:29.591Z,1.10
2022-09-20T01:49:41.785Z,1.23
2022-09-20T01:55:13.542Z,1.23
2022-09-20T02:00:21.776Z,1.13
2022-09-20T02:06:03.751Z,1.00
2022-09-20T02:11:15.023Z,1.27
2022-09-20T02:16:48.726Z,1.20
2022-09-20T02:22:05.481Z,1.47
2022-09-20T02:27:19.406Z,1.07
2022-09-20T02:32:46.423Z,1.63
2022-09-20T02:38:01.888Z,1.33
2022-09-20T02:43:14.302Z,1.33
2022-09-20T02:48:25.475Z,2.03
2022-09-20T02:53:38.921Z,1.63
2022-09-20T02:58:53.385Z,1.37
2022-09-20T03:04:09.213Z,1.60
2022-09-20T03:09:19.724Z,1.33
2022-09-20T03:14:27.654Z,1.80
2022-09-20T03:19:56.966Z,1.40
2022-09-20T03:25:32.152Z,1.73
2022-09-20T03:30:52.112Z,1.50
2022-09-20T03:36:11.960Z,1.30
2022-09-20T03:41:48.602Z,1.30
2022-09-20T03:46:57.932Z,1.13
2022-09-20T03:52:15.963Z,1.53
2022-09-20T03:57:36.476Z,1.40
2022-09-20T04:03:00.572Z,1.40
2022-09-20T04:08:18.427Z,1.33
2022-09-20T04:13:35.773Z,1.30
2022-09-20T04:18:46.450Z,1.77
2022-09-20T04:23:57.489Z,1.40
2022-09-20T04:29:14.578Z,1.30
2022-09-20T04:34:24.175Z,1.73
2022-09-20T04:39:42.582Z,1.53
2022-09-20T04:45:16.734Z,1.20
2022-09-20T04:50:40.379Z,1.57
2022-09-20T04:55:57.027Z,1.20
2022-09-20T05:01:33.282Z,1.40
2022-09-20T05:07:03.352Z,1.20
2022-09-20T05:12:39.014Z,1.60
2022-09-20T05:18:05.956Z,1.60
2022-09-20T05:23:29.900Z,1.60
2022-09-20T05:28:40.347Z,1.80
2022-09-20T05:33:53.669Z,1.40
2022-09-20T05:39:03.925Z,1.60
2022-09-20T05:44:20.663Z,1.50
2022-09-20T05:49:41.235Z,1.57
2022-09-20T05:55:13.903Z,1.80
2022-09-20T06:00:21.551Z,2.00
2022-09-20T06:05:34.962Z,2.00
2022-09-20T06:10:51.622Z,1.73
2022-09-20T06:16:01.252Z,1.90
2022-09-20T06:21:16.766Z,1.63
2022-09-20T06:26:25.171Z,2.03
2022-09-20T06:31:29.640Z,1.70
2022-09-20T06:36:51.460Z,1.80
2022-09-20T06:41:56.320Z,1.70
2022-09-20T06:47:00.680Z,2.50
2022-09-20T06:52:05.730Z,1.63
2022-09-20T06:57:08.786Z,2.00
2022-09-20T07:02:13.215Z,1.60
2022-09-20T07:07:19.097Z,2.17
2022-09-20T07:12:22.224Z,1.70
2022-09-20T07:17:26.939Z,1.87
2022-09-20T07:22:29.912Z,2.20
2022-09-20T07:27:32.851Z,1.60
2022-09-20T07:32:39.816Z,1.70
2022-09-20T07:37:43.532Z,1.37
2022-09-20T07:42:46.667Z,1.30
2022-09-20T07:47:50.955Z,1.63
2022-09-20T07:52:57.379Z,1.93
2022-09-20T07:58:00.544Z,1.90
2022-09-20T08:03:06.063Z,1.60
2022-09-20T08:08:09.641Z,1.93
2022-09-20T08:18:38.308Z,1.70
2022-09-20T08:23:43.512Z,1.70
2022-09-20T08:28:47.390Z,1.37
2022-09-20T08:33:53.181Z,1.00
2022-09-20T08:44:26.465Z,1.27
2022-09-20T08:49:32.004Z,1.60
2022-09-20T08:54:36.325Z,1.20
2022-09-20T08:59:40.973Z,1.38
2022-09-20T09:04:45.756Z,1.33
2022-09-20T09:09:51.944Z,1.25
2022-09-20T09:14:59.722Z,1.20
2022-09-20T09:20:16.925Z,1.27
2022-09-20T09:25:25.618Z,1.60
2022-09-20T09:30:33.097Z,1.48
2022-09-20T09:35:38.484Z,1.23
2022-09-20T09:40:51.326Z,1.50
2022-09-20T09:45:55.481Z,1.58
2022-09-20T09:51:15.503Z,1.38
2022-09-20T09:56:39.292Z,1.45
2022-09-20T10:01:50.293Z,1.30
2022-09-20T10:07:04.412Z,1.48
2022-09-20T10:12:30.200Z,1.25
2022-09-20T10:17:48.435Z,1.17
2022-09-20T10:23:34.532Z,1.10
2022-09-20T10:28:48.596Z,1.10
2022-09-20T10:34:07.687Z,1.30
2022-09-20T10:39:20.139Z,1.45
2022-09-20T10:44:40.398Z,1.63
2022-09-20T10:49:50.982Z,1.20
2022-09-20T10:55:10.035Z,1.38
2022-09-20T11:00:25.245Z,1.15
2022-09-20T11:05:35.056Z,1.20
2022-09-20T11:10:48.089Z,1.35
2022-09-20T11:15:59.561Z,1.27
2022-09-20T11:21:09.425Z,1.63
2022-09-20T11:26:20.022Z,1.20
2022-09-20T11:31:28.238Z,0.95
2022-09-20T11:36:40.872Z,1.20
2022-09-20T11:41:46.932Z,1.02
2022-09-20T11:46:56.897Z,1.10
2022-09-20T11:52:36.114Z,1.20
2022-09-20T11:57:40.930Z,0.80
2022-09-20T12:02:50.513Z,1.20
2022-09-20T12:07:56.159Z,0.82
2022-09-20T12:13:02.250Z,0.80
2022-09-20T12:18:37.955Z,0.88
2022-09-20T12:24:21.380Z,0.77
2022-09-20T12:30:16.103Z,1.17
2022-09-20T12:36:01.299Z,0.88
2022-09-20T12:41:12.821Z,1.33
2022-09-20T12:46:23.199Z,1.17
2022-09-20T12:51:50.952Z,1.38
2022-09-20T12:56:56.274Z,1.10
2022-09-20T13:02:49.409Z,1.08
2022-09-20T13:08:01.462Z,1.42
2022-09-20T13:13:32.169Z,0.90
2022-09-20T13:18:37.952Z,1.40
2022-09-20T13:23:49.728Z,0.98
2022-09-20T13:28:56.344Z,0.90
2022-09-20T13:34:29.763Z,1.35
2022-09-20T13:39:39.609Z,1.20
2022-09-20T13:44:44.930Z,1.20
2022-09-20T13:49:48.238Z,1.00
2022-09-20T13:54:51.366Z,1.50
2022-09-20T13:59:58.219Z,0.98
2022-09-20T14:05:04.698Z,0.98
2022-09-20T14:10:28.313Z,1.25
2022-09-20T14:15:37.308Z,1.00
2022-09-20T14:20:43.664Z,1.10
2022-09-20T14:26:07.082Z,0.85
2022-09-20T14:31:17.430Z,0.98
2022-09-20T14:36:23.824Z,1.45
2022-09-20T14:41:29.811Z,1.13
2022-09-20T14:46:36.266Z,1.10
2022-09-20T14:51:39.407Z,1.63
2022-09-20T14:56:49.349Z,1.02
2022-09-20T15:02:03.499Z,0.90
2022-09-20T15:07:08.477Z,1.20
2022-09-20T15:12:17.902Z,1.05
2022-09-20T15:17:23.763Z,1.13
2022-09-20T15:22:27.484Z,0.93
2022-09-20T15:27:30.427Z,0.80
2022-09-20T15:32:34.805Z,0.90
2022-09-20T15:37:38.394Z,1.23
2022-09-20T15:42:41.920Z,0.90
2022-09-20T15:47:46.810Z,1.17
2022-09-20T15:52:50.472Z,1.50
2022-09-20T15:57:53.504Z,1.00
2022-09-20T16:02:57.918Z,0.90
2022-09-20T16:08:00.798Z,1.23
2022-09-20T16:13:03.691Z,0.73
2022-09-20T16:18:26.560Z,0.80
2022-09-20T16:23:29.617Z,1.02
2022-09-20T16:28:32.779Z,0.80
2022-09-20T16:33:37.640Z,0.70
2022-09-20T16:38:44.988Z,0.88
2022-09-20T16:43:52.169Z,1.10
2022-09-20T16:49:00.261Z,1.25
2022-09-20T16:54:04.479Z,1.00
2022-09-20T16:59:08.332Z,1.00
2022-09-20T17:04:14.352Z,1.20
2022-09-20T17:09:17.684Z,1.50
2022-09-20T17:14:21.938Z,1.23
2022-09-20T17:19:26.952Z,1.38
2022-09-20T17:24:30.627Z,1.65
2022-09-20T17:29:33.763Z,1.20
2022-09-20T17:34:38.064Z,1.20
2022-09-20T17:39:41.742Z,1.38
2022-09-20T17:44:45.024Z,1.02
2022-09-20T17:49:49.377Z,0.93
2022-09-20T17:54:52.441Z,1.38
2022-09-20T17:59:55.644Z,1.70
2022-09-20T18:04:59.879Z,1.70
2022-09-20T18:10:02.911Z,1.15
2022-09-20T18:15:07.264Z,1.55
2022-09-20T18:20:14.184Z,1.50
2022-09-20T18:25:21.439Z,1.58
2022-09-20T18:30:27.708Z,1.23
2022-09-20T18:35:35.042Z,1.40
2022-09-20T18:40:38.500Z,1.38
2022-09-20T18:45:42.659Z,1.20
2022-09-20T18:50:57.555Z,1.55
2022-09-20T18:56:07.700Z,1.65
2022-09-20T19:01:35.497Z,1.37
2022-09-20T19:06:44.779Z,2.00
2022-09-20T19:11:55.474Z,1.77
2022-09-20T19:17:02.486Z,2.10
2022-09-20T19:22:16.293Z,1.80
2022-09-20T19:27:23.497Z,1.90
2022-09-20T19:32:27.869Z,1.80
2022-09-20T19:37:39.235Z,1.37
2022-09-20T19:42:55.063Z,2.07
2022-09-20T19:48:06.168Z,1.63
2022-09-20T19:53:12.397Z,1.43
2022-09-20T19:58:16.542Z,1.80
2022-09-20T20:03:23.600Z,1.80
2022-09-20T20:08:36.159Z,1.60
2022-09-20T20:14:07.898Z,1.93
2022-09-20T20:19:36.307Z,2.10
2022-09-20T20:24:46.814Z,1.77
2022-09-20T20:29:50.382Z,2.00
2022-09-20T20:34:53.310Z,2.20
2022-09-20T20:39:57.677Z,2.40
2022-09-20T20:45:00.615Z,2.83
2022-09-20T20:50:03.557Z,3.27
2022-09-20T20:55:08.722Z,3.20
2022-09-20T21:00:12.584Z,2.80
2022-09-20T21:05:15.664Z,3.37
2022-09-20T21:10:21.843Z,2.80
2022-09-20T21:15:24.715Z,3.00
2022-09-20T21:20:27.785Z,2.77
2022-09-20T21:25:32.133Z,3.03
2022-09-20T21:30:35.189Z,2.70
2022-09-20T21:35:38.066Z,2.60
2022-09-20T21:40:43.216Z,2.87
2022-09-20T21:45:46.507Z,2.70
2022-09-20T21:50:49.576Z,2.90
2022-09-20T21:55:58.557Z,2.53
2022-09-20T22:01:03.613Z,2.80
2022-09-20T22:06:08.863Z,3.07
2022-09-20T22:11:15.101Z,3.27
2022-09-20T22:16:20.617Z,3.00
2022-09-20T22:21:26.040Z,3.07
2022-09-20T22:26:32.780Z,2.80
2022-09-20T22:31:39.159Z,3.00
2022-09-20T22:36:43.397Z,2.90
2022-09-20T22:41:49.157Z,2.63
2022-09-20T22:46:52.639Z,3.10
2022-09-20T22:51:55.947Z,3.00
2022-09-20T22:57:01.554Z,2.63
2022-09-20T23:02:05.391Z,2.83
2022-09-20T23:07:09.219Z,2.70
2022-09-20T23:12:13.916Z,2.97
2022-09-20T23:17:17.385Z,2.40
2022-09-20T23:22:20.958Z,3.33
2022-09-20T23:27:25.775Z,2.80
2022-09-20T23:32:29.345Z,2.93
2022-09-20T23:37:32.649Z,3.37
2022-09-20T23:42:37.354Z,3.10
2022-09-20T23:47:40.595Z,4.00
2022-09-20T23:52:43.817Z,3.60
2022-09-20T23:57:51.019Z,3.73
